sensor_id;sensor_type;location;lat;lon;timestamp;temperature;humidity
46758;DHT22;32509;47.750;-3.396;2023-07-24T00:01:20;18.60;99.90
46758;DHT22;32509;47.750;-3.396;2023-07-24T00:03:46;18.50;99.90
46758;DHT22;32509;47.750;-3.396;2023-07-24T00:06:12;18.50;99.90
46758;DHT22;32509;47.750;-3.396;2023-07-24T00:08:38;18.50;99.90
46758;DHT22;32509;47.750;-3.396;2023-07-24T00:11:10;18.50;99.90
46758;DHT22;32509;47.750;-3.396;2023-07-24T00:13:35;18.50;99.90
46758;DHT22;32509;47.750;-3.396;2023-07-24T00:16:07;18.50;99.90
46758;DHT22;32509;47.750;-3.396;2023-07-24T00:18:32;18.50;99.90
46758;DHT22;32509;47.750;-3.396;2023-07-24T00:20:58;18.50;99.90
46758;DHT22;32509;47.750;-3.396;2023-07-24T00:23:24;18.50;99.90
46758;DHT22;32509;47.750;-3.396;2023-07-24T00:25:50;18.50;99.90
46758;DHT22;32509;47.750;-3.396;2023-07-24T00:28:15;18.40;99.90
46758;DHT22;32509;47.750;-3.396;2023-07-24T00:30:42;18.40;99.90
46758;DHT22;32509;47.750;-3.396;2023-07-24T00:33:08;18.40;99.90
46758;DHT22;32509;47.750;-3.396;2023-07-24T00:35:34;18.40;99.90
46758;DHT22;32509;47.750;-3.396;2023-07-24T00:38:00;18.40;99.90
46758;DHT22;32509;47.750;-3.396;2023-07-24T00:40:26;18.40;99.90
46758;DHT22;32509;47.750;-3.396;2023-07-24T00:42:51;18.40;99.90
46758;DHT22;32509;47.750;-3.396;2023-07-24T00:45:17;18.50;99.90
46758;DHT22;32509;47.750;-3.396;2023-07-24T00:47:43;18.40;99.90
46758;DHT22;32509;47.750;-3.396;2023-07-24T00:50:10;18.50;99.90
46758;DHT22;32509;47.750;-3.396;2023-07-24T00:52:37;18.40;99.90
46758;DHT22;32509;47.750;-3.396;2023-07-24T00:55:03;18.40;99.90
46758;DHT22;32509;47.750;-3.396;2023-07-24T00:57:29;18.40;99.90
46758;DHT22;32509;47.750;-3.396;2023-07-24T00:59:55;18.40;99.90
46758;DHT22;32509;47.750;-3.396;2023-07-24T01:02:21;18.40;99.90
46758;DHT22;32509;47.750;-3.396;2023-07-24T01:04:47;18.40;99.90
46758;DHT22;32509;47.750;-3.396;2023-07-24T01:07:13;18.40;99.90
46758;DHT22;32509;47.750;-3.396;2023-07-24T01:09:39;18.40;99.90
46758;DHT22;32509;47.750;-3.396;2023-07-24T01:12:10;18.40;99.90
46758;DHT22;32509;47.750;-3.396;2023-07-24T01:14:46;18.40;99.90
46758;DHT22;32509;47.750;-3.396;2023-07-24T01:17:15;18.40;99.90
46758;DHT22;32509;47.750;-3.396;2023-07-24T01:19:49;18.40;99.90
46758;DHT22;32509;47.750;-3.396;2023-07-24T01:25:17;18.40;99.90
46758;DHT22;32509;47.750;-3.396;2023-07-24T01:27:45;18.40;99.90
46758;DHT22;32509;47.750;-3.396;2023-07-24T01:30:15;18.30;99.90
46758;DHT22;32509;47.750;-3.396;2023-07-24T01:32:41;18.40;99.90
46758;DHT22;32509;47.750;-3.396;2023-07-24T01:35:07;18.30;99.90
46758;DHT22;32509;47.750;-3.396;2023-07-24T01:37:34;18.30;99.90
46758;DHT22;32509;47.750;-3.396;2023-07-24T01:40:02;18.30;99.90
46758;DHT22;32509;47.750;-3.396;2023-07-24T01:42:28;18.30;99.90
46758;DHT22;32509;47.750;-3.396;2023-07-24T01:44:55;18.30;99.90
46758;DHT22;32509;47.750;-3.396;2023-07-24T01:47:21;18.30;99.90
46758;DHT22;32509;47.750;-3.396;2023-07-24T01:49:47;18.30;99.90
46758;DHT22;32509;47.750;-3.396;2023-07-24T01:52:13;18.30;99.90
46758;DHT22;32509;47.750;-3.396;2023-07-24T01:54:39;18.30;99.90
46758;DHT22;32509;47.750;-3.396;2023-07-24T01:57:05;18.30;99.90
46758;DHT22;32509;47.750;-3.396;2023-07-24T01:59:31;18.30;99.90
46758;DHT22;32509;47.750;-3.396;2023-07-24T02:01:57;18.30;99.90
46758;DHT22;32509;47.750;-3.396;2023-07-24T02:04:25;18.30;99.90
46758;DHT22;32509;47.750;-3.396;2023-07-24T02:06:51;18.20;99.90
46758;DHT22;32509;47.750;-3.396;2023-07-24T02:09:20;18.30;99.90
46758;DHT22;32509;47.750;-3.396;2023-07-24T02:11:46;18.20;99.90
46758;DHT22;32509;47.750;-3.396;2023-07-24T02:14:13;18.30;99.90
46758;DHT22;32509;47.750;-3.396;2023-07-24T02:16:39;18.20;99.90
46758;DHT22;32509;47.750;-3.396;2023-07-24T02:19:05;18.20;99.90
46758;DHT22;32509;47.750;-3.396;2023-07-24T02:21:32;18.20;99.90
46758;DHT22;32509;47.750;-3.396;2023-07-24T02:23:58;18.20;99.90
46758;DHT22;32509;47.750;-3.396;2023-07-24T02:26:23;18.20;99.90
46758;DHT22;32509;47.750;-3.396;2023-07-24T02:28:49;18.20;99.90
46758;DHT22;32509;47.750;-3.396;2023-07-24T02:31:15;18.20;99.90
46758;DHT22;32509;47.750;-3.396;2023-07-24T02:33:41;18.20;99.90
46758;DHT22;32509;47.750;-3.396;2023-07-24T02:36:07;18.20;99.90
46758;DHT22;32509;47.750;-3.396;2023-07-24T02:38:33;18.20;99.90
46758;DHT22;32509;47.750;-3.396;2023-07-24T02:40:59;18.20;99.90
46758;DHT22;32509;47.750;-3.396;2023-07-24T02:43:25;18.20;99.90
46758;DHT22;32509;47.750;-3.396;2023-07-24T02:45:50;18.20;99.90
46758;DHT22;32509;47.750;-3.396;2023-07-24T02:48:19;18.20;99.90
46758;DHT22;32509;47.750;-3.396;2023-07-24T02:50:47;18.20;99.90
46758;DHT22;32509;47.750;-3.396;2023-07-24T02:53:13;18.20;99.90
46758;DHT22;32509;47.750;-3.396;2023-07-24T02:55:42;18.20;99.90
46758;DHT22;32509;47.750;-3.396;2023-07-24T02:58:09;18.30;99.90
46758;DHT22;32509;47.750;-3.396;2023-07-24T03:00:34;18.30;99.90
46758;DHT22;32509;47.750;-3.396;2023-07-24T03:03:00;18.20;99.90
46758;DHT22;32509;47.750;-3.396;2023-07-24T03:05:26;18.20;99.90
46758;DHT22;32509;47.750;-3.396;2023-07-24T03:07:51;18.30;99.90
46758;DHT22;32509;47.750;-3.396;2023-07-24T03:10:17;18.20;99.90
46758;DHT22;32509;47.750;-3.396;2023-07-24T03:12:43;18.20;99.90
46758;DHT22;32509;47.750;-3.396;2023-07-24T03:15:09;18.30;99.90
46758;DHT22;32509;47.750;-3.396;2023-07-24T03:17:35;18.20;99.90
46758;DHT22;32509;47.750;-3.396;2023-07-24T03:20:09;18.30;99.90
46758;DHT22;32509;47.750;-3.396;2023-07-24T03:22:35;18.30;99.90
46758;DHT22;32509;47.750;-3.396;2023-07-24T03:25:01;18.30;99.90
46758;DHT22;32509;47.750;-3.396;2023-07-24T03:27:26;18.30;99.90
46758;DHT22;32509;47.750;-3.396;2023-07-24T03:29:52;18.30;99.90
46758;DHT22;32509;47.750;-3.396;2023-07-24T03:32:18;18.30;99.90
46758;DHT22;32509;47.750;-3.396;2023-07-24T03:34:44;18.30;99.90
46758;DHT22;32509;47.750;-3.396;2023-07-24T03:37:09;18.30;99.90
46758;DHT22;32509;47.750;-3.396;2023-07-24T03:39:35;18.30;99.90
46758;DHT22;32509;47.750;-3.396;2023-07-24T03:42:02;18.30;99.90
46758;DHT22;32509;47.750;-3.396;2023-07-24T03:44:28;18.30;99.90
46758;DHT22;32509;47.750;-3.396;2023-07-24T03:46:54;18.30;99.90
46758;DHT22;32509;47.750;-3.396;2023-07-24T03:49:19;18.30;99.90
46758;DHT22;32509;47.750;-3.396;2023-07-24T03:51:45;18.30;99.90
46758;DHT22;32509;47.750;-3.396;2023-07-24T03:54:11;18.30;99.90
46758;DHT22;32509;47.750;-3.396;2023-07-24T03:56:36;18.30;99.90
46758;DHT22;32509;47.750;-3.396;2023-07-24T03:59:02;18.30;99.90
46758;DHT22;32509;47.750;-3.396;2023-07-24T04:01:28;18.30;99.90
46758;DHT22;32509;47.750;-3.396;2023-07-24T04:03:54;18.30;99.90
46758;DHT22;32509;47.750;-3.396;2023-07-24T04:06:20;18.40;99.90
46758;DHT22;32509;47.750;-3.396;2023-07-24T04:08:45;18.40;99.90
46758;DHT22;32509;47.750;-3.396;2023-07-24T04:11:11;18.30;99.90
46758;DHT22;32509;47.750;-3.396;2023-07-24T04:13:37;18.40;99.90
46758;DHT22;32509;47.750;-3.396;2023-07-24T04:16:03;18.40;99.90
46758;DHT22;32509;47.750;-3.396;2023-07-24T04:18:28;18.40;99.90
46758;DHT22;32509;47.750;-3.396;2023-07-24T04:20:56;18.40;99.90
46758;DHT22;32509;47.750;-3.396;2023-07-24T04:23:22;18.40;99.90
46758;DHT22;32509;47.750;-3.396;2023-07-24T04:25:50;18.40;99.90
46758;DHT22;32509;47.750;-3.396;2023-07-24T04:28:16;18.40;99.90
46758;DHT22;32509;47.750;-3.396;2023-07-24T04:30:41;18.40;99.90
46758;DHT22;32509;47.750;-3.396;2023-07-24T04:33:07;18.40;99.90
46758;DHT22;32509;47.750;-3.396;2023-07-24T04:35:33;18.40;99.90
46758;DHT22;32509;47.750;-3.396;2023-07-24T04:37:59;18.50;99.90
46758;DHT22;32509;47.750;-3.396;2023-07-24T04:40:25;18.40;99.90
46758;DHT22;32509;47.750;-3.396;2023-07-24T04:42:50;18.40;99.90
46758;DHT22;32509;47.750;-3.396;2023-07-24T04:45:16;18.40;99.90
46758;DHT22;32509;47.750;-3.396;2023-07-24T04:47:42;18.40;99.90
46758;DHT22;32509;47.750;-3.396;2023-07-24T04:50:08;18.40;99.90
46758;DHT22;32509;47.750;-3.396;2023-07-24T04:52:34;18.40;99.90
46758;DHT22;32509;47.750;-3.396;2023-07-24T04:54:59;18.50;99.90
46758;DHT22;32509;47.750;-3.396;2023-07-24T04:57:25;18.40;99.90
46758;DHT22;32509;47.750;-3.396;2023-07-24T04:59:51;18.40;99.90
46758;DHT22;32509;47.750;-3.396;2023-07-24T05:02:16;18.40;99.90
46758;DHT22;32509;47.750;-3.396;2023-07-24T05:04:42;18.40;99.90
46758;DHT22;32509;47.750;-3.396;2023-07-24T05:07:08;18.50;99.90
46758;DHT22;32509;47.750;-3.396;2023-07-24T05:09:34;18.40;99.90
46758;DHT22;32509;47.750;-3.396;2023-07-24T05:11:59;18.40;99.90
46758;DHT22;32509;47.750;-3.396;2023-07-24T05:14:25;18.50;99.90
46758;DHT22;32509;47.750;-3.396;2023-07-24T05:16:51;18.40;99.90
46758;DHT22;32509;47.750;-3.396;2023-07-24T05:19:17;18.40;99.90
46758;DHT22;32509;47.750;-3.396;2023-07-24T05:21:42;18.50;99.90
46758;DHT22;32509;47.750;-3.396;2023-07-24T05:24:08;18.40;99.90
46758;DHT22;32509;47.750;-3.396;2023-07-24T05:26:34;18.40;99.90
46758;DHT22;32509;47.750;-3.396;2023-07-24T05:29:00;18.40;99.90
46758;DHT22;32509;47.750;-3.396;2023-07-24T05:31:25;18.40;99.90
46758;DHT22;32509;47.750;-3.396;2023-07-24T05:33:51;18.50;99.90
46758;DHT22;32509;47.750;-3.396;2023-07-24T05:36:17;18.50;99.90
46758;DHT22;32509;47.750;-3.396;2023-07-24T05:38:43;18.50;99.90
46758;DHT22;32509;47.750;-3.396;2023-07-24T05:41:08;18.40;99.90
46758;DHT22;32509;47.750;-3.396;2023-07-24T05:43:34;18.50;99.90
46758;DHT22;32509;47.750;-3.396;2023-07-24T05:46:00;18.50;99.90
46758;DHT22;32509;47.750;-3.396;2023-07-24T05:48:26;18.50;99.90
46758;DHT22;32509;47.750;-3.396;2023-07-24T05:50:51;18.50;99.90
46758;DHT22;32509;47.750;-3.396;2023-07-24T05:53:17;18.50;99.90
46758;DHT22;32509;47.750;-3.396;2023-07-24T05:55:43;18.50;99.90
46758;DHT22;32509;47.750;-3.396;2023-07-24T05:58:09;18.50;99.90
46758;DHT22;32509;47.750;-3.396;2023-07-24T06:00:35;18.50;99.90
46758;DHT22;32509;47.750;-3.396;2023-07-24T06:03:02;18.50;99.90
46758;DHT22;32509;47.750;-3.396;2023-07-24T06:05:28;18.50;99.90
46758;DHT22;32509;47.750;-3.396;2023-07-24T06:07:54;18.50;99.90
46758;DHT22;32509;47.750;-3.396;2023-07-24T06:10:20;18.50;99.90
46758;DHT22;32509;47.750;-3.396;2023-07-24T06:12:47;18.60;99.90
46758;DHT22;32509;47.750;-3.396;2023-07-24T06:15:13;18.60;99.90
46758;DHT22;32509;47.750;-3.396;2023-07-24T06:17:39;18.50;99.90
46758;DHT22;32509;47.750;-3.396;2023-07-24T06:20:06;18.60;99.90
46758;DHT22;32509;47.750;-3.396;2023-07-24T06:22:31;18.60;99.90
46758;DHT22;32509;47.750;-3.396;2023-07-24T06:24:57;18.60;99.90
46758;DHT22;32509;47.750;-3.396;2023-07-24T06:27:23;18.60;99.90
46758;DHT22;32509;47.750;-3.396;2023-07-24T06:29:49;18.60;99.90
46758;DHT22;32509;47.750;-3.396;2023-07-24T06:32:15;18.60;99.90
46758;DHT22;32509;47.750;-3.396;2023-07-24T06:34:40;18.60;99.90
46758;DHT22;32509;47.750;-3.396;2023-07-24T06:37:06;18.60;99.90
46758;DHT22;32509;47.750;-3.396;2023-07-24T06:39:32;18.60;99.90
46758;DHT22;32509;47.750;-3.396;2023-07-24T06:41:58;18.60;99.90
46758;DHT22;32509;47.750;-3.396;2023-07-24T06:44:24;18.60;99.90
46758;DHT22;32509;47.750;-3.396;2023-07-24T06:46:50;18.60;99.90
46758;DHT22;32509;47.750;-3.396;2023-07-24T06:49:16;18.60;99.90
46758;DHT22;32509;47.750;-3.396;2023-07-24T06:51:42;18.60;99.90
46758;DHT22;32509;47.750;-3.396;2023-07-24T06:54:07;18.60;99.90
46758;DHT22;32509;47.750;-3.396;2023-07-24T06:56:33;18.60;99.90
46758;DHT22;32509;47.750;-3.396;2023-07-24T06:58:59;18.70;99.90
46758;DHT22;32509;47.750;-3.396;2023-07-24T07:01:25;18.70;99.90
46758;DHT22;32509;47.750;-3.396;2023-07-24T07:03:51;18.70;99.90
46758;DHT22;32509;47.750;-3.396;2023-07-24T07:06:16;18.70;99.90
46758;DHT22;32509;47.750;-3.396;2023-07-24T07:08:42;18.70;99.90
46758;DHT22;32509;47.750;-3.396;2023-07-24T07:11:08;18.70;99.90
46758;DHT22;32509;47.750;-3.396;2023-07-24T07:13:34;18.70;99.90
46758;DHT22;32509;47.750;-3.396;2023-07-24T07:16:00;18.70;99.90
46758;DHT22;32509;47.750;-3.396;2023-07-24T07:18:25;18.70;99.90
46758;DHT22;32509;47.750;-3.396;2023-07-24T07:20:52;18.70;99.90
46758;DHT22;32509;47.750;-3.396;2023-07-24T07:23:18;18.70;99.90
46758;DHT22;32509;47.750;-3.396;2023-07-24T07:25:44;18.70;99.90
46758;DHT22;32509;47.750;-3.396;2023-07-24T07:28:15;18.70;99.90
46758;DHT22;32509;47.750;-3.396;2023-07-24T07:30:42;18.70;99.90
46758;DHT22;32509;47.750;-3.396;2023-07-24T07:33:08;18.70;99.90
46758;DHT22;32509;47.750;-3.396;2023-07-24T07:35:35;18.70;99.90
46758;DHT22;32509;47.750;-3.396;2023-07-24T07:38:01;18.80;99.90
46758;DHT22;32509;47.750;-3.396;2023-07-24T07:40:27;18.80;99.90
46758;DHT22;32509;47.750;-3.396;2023-07-24T07:42:54;18.80;99.90
46758;DHT22;32509;47.750;-3.396;2023-07-24T07:45:21;18.80;99.90
46758;DHT22;32509;47.750;-3.396;2023-07-24T07:47:47;18.80;99.90
46758;DHT22;32509;47.750;-3.396;2023-07-24T07:50:13;18.80;99.90
46758;DHT22;32509;47.750;-3.396;2023-07-24T07:52:39;18.80;99.90
46758;DHT22;32509;47.750;-3.396;2023-07-24T07:55:05;18.90;99.90
46758;DHT22;32509;47.750;-3.396;2023-07-24T07:57:37;18.90;99.90
46758;DHT22;32509;47.750;-3.396;2023-07-24T08:00:05;18.90;99.90
46758;DHT22;32509;47.750;-3.396;2023-07-24T08:02:33;18.90;99.90
46758;DHT22;32509;47.750;-3.396;2023-07-24T08:04:59;18.90;99.90
46758;DHT22;32509;47.750;-3.396;2023-07-24T08:07:25;18.90;99.90
46758;DHT22;32509;47.750;-3.396;2023-07-24T08:09:51;19.00;99.90
46758;DHT22;32509;47.750;-3.396;2023-07-24T08:12:17;19.00;99.90
46758;DHT22;32509;47.750;-3.396;2023-07-24T08:14:42;19.00;99.90
46758;DHT22;32509;47.750;-3.396;2023-07-24T08:17:08;19.00;99.90
46758;DHT22;32509;47.750;-3.396;2023-07-24T08:19:34;19.10;99.90
46758;DHT22;32509;47.750;-3.396;2023-07-24T08:22:00;19.10;99.90
46758;DHT22;32509;47.750;-3.396;2023-07-24T08:24:25;19.10;99.90
46758;DHT22;32509;47.750;-3.396;2023-07-24T08:26:51;19.10;99.90
46758;DHT22;32509;47.750;-3.396;2023-07-24T08:29:17;19.10;99.90
46758;DHT22;32509;47.750;-3.396;2023-07-24T08:31:43;19.10;99.90
46758;DHT22;32509;47.750;-3.396;2023-07-24T08:34:09;19.10;99.90
46758;DHT22;32509;47.750;-3.396;2023-07-24T08:36:34;19.20;99.90
46758;DHT22;32509;47.750;-3.396;2023-07-24T08:39:00;19.20;99.90
46758;DHT22;32509;47.750;-3.396;2023-07-24T08:41:26;19.20;99.90
46758;DHT22;32509;47.750;-3.396;2023-07-24T08:43:55;19.20;99.90
46758;DHT22;32509;47.750;-3.396;2023-07-24T08:46:21;19.30;99.90
46758;DHT22;32509;47.750;-3.396;2023-07-24T08:48:47;19.30;99.90
46758;DHT22;32509;47.750;-3.396;2023-07-24T08:51:15;19.30;99.90
46758;DHT22;32509;47.750;-3.396;2023-07-24T08:53:44;19.30;99.90
46758;DHT22;32509;47.750;-3.396;2023-07-24T08:56:11;19.30;99.90
46758;DHT22;32509;47.750;-3.396;2023-07-24T08:58:40;19.30;99.90
46758;DHT22;32509;47.750;-3.396;2023-07-24T09:01:07;19.40;99.90
46758;DHT22;32509;47.750;-3.396;2023-07-24T09:03:33;19.40;99.90
46758;DHT22;32509;47.750;-3.396;2023-07-24T09:05:59;19.40;99.90
46758;DHT22;32509;47.750;-3.396;2023-07-24T09:10:57;19.40;99.90
46758;DHT22;32509;47.750;-3.396;2023-07-24T09:13:23;19.40;99.90
46758;DHT22;32509;47.750;-3.396;2023-07-24T09:15:49;19.40;99.90
46758;DHT22;32509;47.750;-3.396;2023-07-24T09:18:14;19.40;99.90
46758;DHT22;32509;47.750;-3.396;2023-07-24T09:20:42;19.50;99.90
46758;DHT22;32509;47.750;-3.396;2023-07-24T09:23:10;19.50;99.90
46758;DHT22;32509;47.750;-3.396;2023-07-24T09:25:37;19.50;99.90
46758;DHT22;32509;47.750;-3.396;2023-07-24T09:28:14;19.50;99.90
46758;DHT22;32509;47.750;-3.396;2023-07-24T09:30:41;19.50;99.90
46758;DHT22;32509;47.750;-3.396;2023-07-24T09:33:07;19.50;99.90
46758;DHT22;32509;47.750;-3.396;2023-07-24T09:35:33;19.50;99.90
46758;DHT22;32509;47.750;-3.396;2023-07-24T09:38:07;19.60;99.90
46758;DHT22;32509;47.750;-3.396;2023-07-24T09:40:43;19.60;99.90
46758;DHT22;32509;47.750;-3.396;2023-07-24T09:43:22;19.70;99.90
46758;DHT22;32509;47.750;-3.396;2023-07-24T09:45:49;19.60;99.90
46758;DHT22;32509;47.750;-3.396;2023-07-24T09:48:17;19.70;99.90
46758;DHT22;32509;47.750;-3.396;2023-07-24T09:50:46;19.70;99.90
46758;DHT22;32509;47.750;-3.396;2023-07-24T09:55:52;19.80;99.90
46758;DHT22;32509;47.750;-3.396;2023-07-24T09:58:21;19.80;99.90
46758;DHT22;32509;47.750;-3.396;2023-07-24T10:00:48;19.80;99.90
46758;DHT22;32509;47.750;-3.396;2023-07-24T10:03:15;19.80;99.90
46758;DHT22;32509;47.750;-3.396;2023-07-24T10:05:43;19.80;99.90
46758;DHT22;32509;47.750;-3.396;2023-07-24T10:08:10;19.90;99.90
46758;DHT22;32509;47.750;-3.396;2023-07-24T10:10:38;19.90;99.90
46758;DHT22;32509;47.750;-3.396;2023-07-24T10:13:04;20.00;99.90
46758;DHT22;32509;47.750;-3.396;2023-07-24T10:15:30;20.00;99.90
46758;DHT22;32509;47.750;-3.396;2023-07-24T10:18:03;20.00;99.90
46758;DHT22;32509;47.750;-3.396;2023-07-24T10:20:39;20.00;99.90
46758;DHT22;32509;47.750;-3.396;2023-07-24T10:23:11;20.10;99.90
46758;DHT22;32509;47.750;-3.396;2023-07-24T10:25:43;20.10;99.90
46758;DHT22;32509;47.750;-3.396;2023-07-24T10:28:11;20.10;99.90
46758;DHT22;32509;47.750;-3.396;2023-07-24T10:30:38;20.10;99.90
46758;DHT22;32509;47.750;-3.396;2023-07-24T10:33:11;20.10;99.90
46758;DHT22;32509;47.750;-3.396;2023-07-24T10:35:49;20.20;99.90
46758;DHT22;32509;47.750;-3.396;2023-07-24T10:38:17;20.20;99.90
46758;DHT22;32509;47.750;-3.396;2023-07-24T10:40:46;20.20;99.90
46758;DHT22;32509;47.750;-3.396;2023-07-24T10:43:19;20.20;99.90
46758;DHT22;32509;47.750;-3.396;2023-07-24T10:45:53;20.20;99.90
46758;DHT22;32509;47.750;-3.396;2023-07-24T10:48:21;20.20;99.90
46758;DHT22;32509;47.750;-3.396;2023-07-24T10:50:49;20.30;99.90
46758;DHT22;32509;47.750;-3.396;2023-07-24T10:53:17;20.30;99.90
46758;DHT22;32509;47.750;-3.396;2023-07-24T10:55:43;20.30;99.90
46758;DHT22;32509;47.750;-3.396;2023-07-24T10:58:09;20.30;99.90
46758;DHT22;32509;47.750;-3.396;2023-07-24T11:00:35;20.30;99.90
46758;DHT22;32509;47.750;-3.396;2023-07-24T11:03:01;20.30;99.90
46758;DHT22;32509;47.750;-3.396;2023-07-24T11:05:27;20.40;99.90
46758;DHT22;32509;47.750;-3.396;2023-07-24T11:07:54;20.30;99.90
46758;DHT22;32509;47.750;-3.396;2023-07-24T11:10:21;20.30;99.90
46758;DHT22;32509;47.750;-3.396;2023-07-24T11:12:48;20.30;99.90
46758;DHT22;32509;47.750;-3.396;2023-07-24T11:15:15;20.40;99.90
46758;DHT22;32509;47.750;-3.396;2023-07-24T11:17:42;20.30;99.90
46758;DHT22;32509;47.750;-3.396;2023-07-24T11:20:13;20.40;99.90
46758;DHT22;32509;47.750;-3.396;2023-07-24T11:22:40;20.40;99.90
46758;DHT22;32509;47.750;-3.396;2023-07-24T11:25:07;20.40;99.90
46758;DHT22;32509;47.750;-3.396;2023-07-24T11:27:37;20.40;99.90
46758;DHT22;32509;47.750;-3.396;2023-07-24T11:30:03;20.40;99.90
46758;DHT22;32509;47.750;-3.396;2023-07-24T11:32:30;20.40;99.90
46758;DHT22;32509;47.750;-3.396;2023-07-24T11:34:56;20.40;99.90
46758;DHT22;32509;47.750;-3.396;2023-07-24T11:37:22;20.40;99.90
46758;DHT22;32509;47.750;-3.396;2023-07-24T11:39:59;20.30;99.90
46758;DHT22;32509;47.750;-3.396;2023-07-24T11:42:27;20.30;99.90
46758;DHT22;32509;47.750;-3.396;2023-07-24T11:44:53;20.30;99.90
46758;DHT22;32509;47.750;-3.396;2023-07-24T11:47:19;20.40;99.90
46758;DHT22;32509;47.750;-3.396;2023-07-24T11:49:56;20.30;99.90
46758;DHT22;32509;47.750;-3.396;2023-07-24T11:52:22;20.40;99.90
46758;DHT22;32509;47.750;-3.396;2023-07-24T11:54:56;20.50;99.90
46758;DHT22;32509;47.750;-3.396;2023-07-24T11:57:27;20.50;99.90
46758;DHT22;32509;47.750;-3.396;2023-07-24T11:59:54;20.50;99.90
46758;DHT22;32509;47.750;-3.396;2023-07-24T12:02:19;20.50;99.90
46758;DHT22;32509;47.750;-3.396;2023-07-24T12:04:45;20.50;99.90
46758;DHT22;32509;47.750;-3.396;2023-07-24T12:07:11;20.50;99.90
46758;DHT22;32509;47.750;-3.396;2023-07-24T12:09:37;20.50;99.90
46758;DHT22;32509;47.750;-3.396;2023-07-24T12:12:03;20.50;99.90
46758;DHT22;32509;47.750;-3.396;2023-07-24T12:14:32;20.50;99.90
46758;DHT22;32509;47.750;-3.396;2023-07-24T12:17:02;20.50;99.90
46758;DHT22;32509;47.750;-3.396;2023-07-24T12:19:28;20.60;99.90
46758;DHT22;32509;47.750;-3.396;2023-07-24T12:21:54;20.60;99.90
46758;DHT22;32509;47.750;-3.396;2023-07-24T12:24:19;20.60;99.90
46758;DHT22;32509;47.750;-3.396;2023-07-24T12:26:45;20.60;99.90
46758;DHT22;32509;47.750;-3.396;2023-07-24T12:29:11;20.60;99.90
46758;DHT22;32509;47.750;-3.396;2023-07-24T12:31:37;20.60;99.90
46758;DHT22;32509;47.750;-3.396;2023-07-24T12:34:02;20.60;99.90
46758;DHT22;32509;47.750;-3.396;2023-07-24T12:36:28;20.70;99.90
46758;DHT22;32509;47.750;-3.396;2023-07-24T12:38:54;20.70;99.90
46758;DHT22;32509;47.750;-3.396;2023-07-24T12:41:20;20.70;99.90
46758;DHT22;32509;47.750;-3.396;2023-07-24T12:43:46;20.70;99.90
46758;DHT22;32509;47.750;-3.396;2023-07-24T12:46:11;20.70;99.90
46758;DHT22;32509;47.750;-3.396;2023-07-24T12:48:37;20.70;99.90
46758;DHT22;32509;47.750;-3.396;2023-07-24T12:51:03;20.70;99.90
46758;DHT22;32509;47.750;-3.396;2023-07-24T12:53:29;20.70;99.90
46758;DHT22;32509;47.750;-3.396;2023-07-24T12:55:54;20.80;99.90
46758;DHT22;32509;47.750;-3.396;2023-07-24T12:58:20;20.70;99.90
46758;DHT22;32509;47.750;-3.396;2023-07-24T13:00:46;20.80;99.90
46758;DHT22;32509;47.750;-3.396;2023-07-24T13:03:12;20.80;99.90
46758;DHT22;32509;47.750;-3.396;2023-07-24T13:05:38;20.90;99.90
46758;DHT22;32509;47.750;-3.396;2023-07-24T13:08:04;20.90;99.90
46758;DHT22;32509;47.750;-3.396;2023-07-24T13:10:30;20.90;99.90
46758;DHT22;32509;47.750;-3.396;2023-07-24T13:12:56;20.90;99.90
46758;DHT22;32509;47.750;-3.396;2023-07-24T13:15:22;20.90;99.90
46758;DHT22;32509;47.750;-3.396;2023-07-24T13:17:48;20.90;99.90
46758;DHT22;32509;47.750;-3.396;2023-07-24T13:20:14;21.00;99.90
46758;DHT22;32509;47.750;-3.396;2023-07-24T13:22:40;20.90;99.90
46758;DHT22;32509;47.750;-3.396;2023-07-24T13:25:08;21.00;99.90
46758;DHT22;32509;47.750;-3.396;2023-07-24T13:27:34;20.90;99.90
46758;DHT22;32509;47.750;-3.396;2023-07-24T13:30:00;20.90;99.90
46758;DHT22;32509;47.750;-3.396;2023-07-24T13:32:29;20.90;99.90
46758;DHT22;32509;47.750;-3.396;2023-07-24T13:34:55;20.90;99.90
46758;DHT22;32509;47.750;-3.396;2023-07-24T13:37:22;20.90;99.90
46758;DHT22;32509;47.750;-3.396;2023-07-24T13:39:50;20.90;99.90
46758;DHT22;32509;47.750;-3.396;2023-07-24T13:42:16;21.00;99.90
46758;DHT22;32509;47.750;-3.396;2023-07-24T13:44:42;21.00;99.90
46758;DHT22;32509;47.750;-3.396;2023-07-24T13:47:08;21.00;99.90
46758;DHT22;32509;47.750;-3.396;2023-07-24T13:49:33;20.90;99.90
46758;DHT22;32509;47.750;-3.396;2023-07-24T13:51:59;20.90;99.90
46758;DHT22;32509;47.750;-3.396;2023-07-24T13:54:25;20.90;99.90
46758;DHT22;32509;47.750;-3.396;2023-07-24T13:56:51;20.90;99.90
46758;DHT22;32509;47.750;-3.396;2023-07-24T13:59:16;20.90;99.90
46758;DHT22;32509;47.750;-3.396;2023-07-24T14:01:42;20.90;99.90
46758;DHT22;32509;47.750;-3.396;2023-07-24T14:04:08;20.90;99.90
46758;DHT22;32509;47.750;-3.396;2023-07-24T14:06:34;20.80;99.90
46758;DHT22;32509;47.750;-3.396;2023-07-24T14:09:00;20.80;99.90
46758;DHT22;32509;47.750;-3.396;2023-07-24T14:11:25;20.80;99.90
46758;DHT22;32509;47.750;-3.396;2023-07-24T14:13:52;20.80;99.90
46758;DHT22;32509;47.750;-3.396;2023-07-24T14:16:18;20.80;99.90
46758;DHT22;32509;47.750;-3.396;2023-07-24T14:18:44;20.80;99.90
46758;DHT22;32509;47.750;-3.396;2023-07-24T14:21:09;20.80;99.90
46758;DHT22;32509;47.750;-3.396;2023-07-24T14:23:35;20.80;99.90
46758;DHT22;32509;47.750;-3.396;2023-07-24T14:26:01;20.80;99.90
46758;DHT22;32509;47.750;-3.396;2023-07-24T14:28:27;20.80;99.90
46758;DHT22;32509;47.750;-3.396;2023-07-24T14:30:52;20.80;99.90
46758;DHT22;32509;47.750;-3.396;2023-07-24T14:33:18;20.70;99.90
46758;DHT22;32509;47.750;-3.396;2023-07-24T14:35:44;20.80;99.90
46758;DHT22;32509;47.750;-3.396;2023-07-24T14:38:10;20.70;99.90
46758;DHT22;32509;47.750;-3.396;2023-07-24T14:40:36;20.80;99.90
46758;DHT22;32509;47.750;-3.396;2023-07-24T14:43:01;20.80;99.90
46758;DHT22;32509;47.750;-3.396;2023-07-24T14:45:27;20.80;99.90
46758;DHT22;32509;47.750;-3.396;2023-07-24T14:47:53;20.70;99.90
46758;DHT22;32509;47.750;-3.396;2023-07-24T14:50:19;20.70;99.90
46758;DHT22;32509;47.750;-3.396;2023-07-24T14:52:44;20.70;99.90
46758;DHT22;32509;47.750;-3.396;2023-07-24T14:55:10;20.70;99.90
46758;DHT22;32509;47.750;-3.396;2023-07-24T14:57:36;20.70;99.90
46758;DHT22;32509;47.750;-3.396;2023-07-24T15:00:02;20.70;99.90
46758;DHT22;32509;47.750;-3.396;2023-07-24T15:02:28;20.60;99.90
46758;DHT22;32509;47.750;-3.396;2023-07-24T15:04:54;20.60;99.90
46758;DHT22;32509;47.750;-3.396;2023-07-24T15:07:19;20.60;99.90
46758;DHT22;32509;47.750;-3.396;2023-07-24T15:09:45;20.60;99.90
46758;DHT22;32509;47.750;-3.396;2023-07-24T15:12:11;20.60;99.90
46758;DHT22;32509;47.750;-3.396;2023-07-24T15:14:37;20.60;99.90
46758;DHT22;32509;47.750;-3.396;2023-07-24T15:17:02;20.50;99.90
46758;DHT22;32509;47.750;-3.396;2023-07-24T15:19:28;20.60;99.90